Time;durP1;ratioP1;P1;durP2;ratioP2;P2;SDS_P1;SDS_P2;PMS_P1;PMS_P2;Temp;Humidity;BMP_temperature;BMP_pressure;BME280_temperature;BME280_humidity;BME280_pressure;Samples;Min_cycle;Max_cycle;Signal;HPM_P1;HPM_P2
2023/05/05 00:00:20;;;;;;;9.68;5.78;;;14.80;99.90;;;;;;5014873;28;20032;-88
2023/05/05 00:02:46;;;;;;;12.55;6.05;;;14.80;99.90;;;;;;4998853;28;20018;-88
2023/05/05 00:05:13;;;;;;;8.27;6.30;;;14.90;99.90;;;;;;4996346;28;20030;-88
2023/05/05 00:07:38;;;;;;;8.60;6.22;;;15.00;99.90;;;;;;4982149;28;20122;-89
2023/05/05 00:10:04;;;;;;;9.50;5.68;;;15.10;99.90;;;;;;5008251;28;20112;-89
2023/05/05 00:12:30;;;;;;;8.30;6.43;;;15.20;99.90;;;;;;5002439;28;20029;-88
2023/05/05 00:14:55;;;;;;;6.60;5.60;;;15.30;99.90;;;;;;4996474;28;20025;-88
2023/05/05 00:17:21;;;;;;;11.35;6.38;;;15.30;99.90;;;;;;4985528;28;20382;-88
2023/05/05 00:19:47;;;;;;;11.32;5.65;;;15.40;99.90;;;;;;4994309;28;20482;-89
2023/05/05 00:22:13;;;;;;;12.35;6.65;;;15.50;99.90;;;;;;4995696;28;20478;-88
2023/05/05 00:24:38;;;;;;;9.68;5.80;;;15.60;99.90;;;;;;4990086;28;20149;-89
2023/05/05 00:27:04;;;;;;;14.00;6.65;;;15.60;99.90;;;;;;4997180;28;20022;-88
2023/05/05 00:29:30;;;;;;;10.98;6.63;;;15.70;99.90;;;;;;4981375;28;20449;-89
2023/05/05 00:31:56;;;;;;;9.35;7.03;;;15.70;99.90;;;;;;4989335;28;20034;-88
2023/05/05 00:34:21;;;;;;;12.57;6.60;;;15.70;99.90;;;;;;5001078;28;20026;-89
2023/05/05 00:36:47;;;;;;;12.43;8.05;;;15.70;99.90;;;;;;5002948;28;20036;-88
2023/05/05 00:39:13;;;;;;;11.90;6.95;;;15.80;99.90;;;;;;5013831;28;20033;-88
2023/05/05 00:41:39;;;;;;;11.50;8.07;;;15.80;99.90;;;;;;4994884;28;20120;-88
2023/05/05 00:44:05;;;;;;;11.60;7.47;;;15.80;99.90;;;;;;4996323;28;20053;-88
2023/05/05 00:46:32;;;;;;;12.15;7.75;;;15.80;99.90;;;;;;4997669;28;20129;-88
2023/05/05 00:48:59;;;;;;;11.82;7.88;;;15.80;99.90;;;;;;4995004;28;20030;-89
2023/05/05 00:51:26;;;;;;;14.00;9.57;;;15.80;99.90;;;;;;4995133;28;20033;-88
2023/05/05 00:53:51;;;;;;;10.90;8.38;;;15.80;99.90;;;;;;4992792;28;20022;-88
2023/05/05 00:56:19;;;;;;;15.90;10.18;;;15.80;99.90;;;;;;5014896;28;20474;-88
2023/05/05 00:58:45;;;;;;;16.30;10.23;;;15.80;99.90;;;;;;4994073;28;20077;-88
2023/05/05 01:01:11;;;;;;;14.15;9.18;;;15.70;99.90;;;;;;5009161;28;20495;-89
2023/05/05 01:03:40;;;;;;;13.52;10.43;;;15.70;99.90;;;;;;4985808;28;20124;-88
2023/05/05 01:06:22;;;;;;;13.18;10.32;;;15.70;99.90;;;;;;5009095;28;20026;-88
2023/05/05 01:09:00;;;;;;;16.02;11.20;;;15.70;99.90;;;;;;4994144;28;20113;-88
2023/05/05 01:11:34;;;;;;;14.77;10.50;;;15.60;99.90;;;;;;4990757;28;20041;-88
2023/05/05 01:14:13;;;;;;;13.48;10.27;;;15.60;99.90;;;;;;5002607;28;20022;-88
2023/05/05 01:16:51;;;;;;;14.07;10.77;;;15.50;99.90;;;;;;4980381;28;20023;-90
2023/05/05 01:19:31;;;;;;;18.48;11.82;;;15.50;99.90;;;;;;4984351;28;20032;-88
2023/05/05 01:22:01;;;;;;;18.83;12.27;;;15.50;99.90;;;;;;4996115;28;20034;-88
2023/05/05 01:24:47;;;;;;;16.02;12.18;;;15.40;99.90;;;;;;5019693;28;20073;-88
2023/05/05 01:27:58;;;;;;;17.73;12.05;;;15.50;99.90;;;;;;5028795;28;20029;-88
2023/05/05 01:30:48;;;;;;;17.80;12.63;;;15.50;99.90;;;;;;4988636;28;20108;-88
2023/05/05 01:33:17;;;;;;;15.82;12.90;;;15.50;99.90;;;;;;5000477;28;20091;-89
2023/05/05 01:35:49;;;;;;;17.85;12.48;;;15.40;99.90;;;;;;5016686;28;20104;-88
2023/05/05 01:38:18;;;;;;;18.85;13.05;;;15.50;99.90;;;;;;5017202;28;20030;-89
2023/05/05 01:41:07;;;;;;;18.58;12.90;;;15.50;99.90;;;;;;5008531;28;20513;-88
2023/05/05 01:43:34;;;;;;;18.00;13.05;;;15.60;99.90;;;;;;5021273;28;20487;-89
2023/05/05 01:46:01;;;;;;;19.15;14.50;;;15.50;99.90;;;;;;5020170;28;20094;-88
2023/05/05 01:48:28;;;;;;;19.05;13.82;;;15.50;99.90;;;;;;5016952;28;20038;-88
2023/05/05 01:50:55;;;;;;;18.67;14.68;;;15.50;99.90;;;;;;4999447;28;20113;-88
2023/05/05 01:53:22;;;;;;;19.92;14.18;;;15.40;99.90;;;;;;5005262;28;20067;-88
2023/05/05 01:55:49;;;;;;;17.60;13.65;;;15.40;99.90;;;;;;4987518;28;20034;-89
2023/05/05 01:59:36;;;;;;;24.55;19.77;;;15.40;99.90;;;;;;5043186;28;20494;-71
2023/05/05 02:02:02;;;;;;;19.67;15.80;;;15.50;99.90;;;;;;5026744;28;20640;-73
2023/05/05 02:04:30;;;;;;;17.48;14.07;;;15.40;99.90;;;;;;5046884;28;20127;-71
2023/05/05 02:06:58;;;;;;;18.25;14.65;;;15.40;99.90;;;;;;5025608;28;20426;-71
2023/05/05 02:09:25;;;;;;;18.20;14.57;;;15.30;99.90;;;;;;5024202;28;20116;-71
2023/05/05 02:11:51;;;;;;;20.48;15.05;;;15.20;99.90;;;;;;5016438;28;20382;-71
2023/05/05 02:14:19;;;;;;;20.17;14.85;;;15.20;99.90;;;;;;5038480;28;20516;-71
2023/05/05 02:16:45;;;;;;;22.20;15.27;;;15.10;99.90;;;;;;5037972;28;20394;-71
2023/05/05 02:19:13;;;;;;;18.60;14.43;;;14.90;99.90;;;;;;5031046;28;20029;-72
2023/05/05 02:21:40;;;;;;;19.63;14.90;;;14.90;99.90;;;;;;5017739;28;20398;-71
2023/05/05 02:24:09;;;;;;;19.80;15.52;;;14.80;99.90;;;;;;5008536;28;20113;-71
2023/05/05 02:26:38;;;;;;;22.38;15.95;;;14.70;99.90;;;;;;5008060;28;20381;-71
2023/05/05 02:29:13;;;;;;;22.80;15.40;;;14.60;99.90;;;;;;5020842;28;20537;-72
2023/05/05 02:31:46;;;;;;;18.80;14.73;;;14.50;99.90;;;;;;5004007;28;20115;-71
2023/05/05 02:34:15;;;;;;;22.58;15.90;;;14.50;99.90;;;;;;5019995;28;20040;-72
2023/05/05 02:36:42;;;;;;;21.95;16.98;;;14.50;99.90;;;;;;5015940;28;20065;-71
2023/05/05 02:39:15;;;;;;;22.70;15.70;;;14.50;99.90;;;;;;5027358;28;20418;-71
2023/05/05 02:41:45;;;;;;;21.70;16.17;;;14.50;99.90;;;;;;5009561;28;20430;-72
2023/05/05 02:44:12;;;;;;;24.17;17.13;;;14.50;99.90;;;;;;5008311;28;20048;-71
2023/05/05 02:46:38;;;;;;;18.95;15.77;;;14.40;99.90;;;;;;5011308;28;20030;-71
2023/05/05 02:49:03;;;;;;;21.05;16.33;;;14.40;99.90;;;;;;5016317;28;20025;-71
2023/05/05 02:51:29;;;;;;;22.63;16.60;;;14.30;99.90;;;;;;5012535;28;20068;-71
2023/05/05 02:53:55;;;;;;;25.35;16.42;;;14.30;99.90;;;;;;5023611;28;20033;-71
2023/05/05 02:56:45;;;;;;;24.55;16.35;;;14.20;99.90;;;;;;5015103;28;20030;-71
2023/05/05 02:59:10;;;;;;;19.83;16.27;;;14.10;99.90;;;;;;5017509;28;20085;-71
2023/05/05 03:01:45;;;;;;;23.00;16.50;;;14.00;99.90;;;;;;5009573;28;20430;-72
2023/05/05 03:04:26;;;;;;;20.92;16.08;;;13.80;99.90;;;;;;5027084;28;20033;-71
2023/05/05 03:06:57;;;;;;;19.92;15.68;;;13.70;99.90;;;;;;5013815;28;20022;-71
2023/05/05 03:10:04;;;;;;;23.63;15.98;;;13.70;99.90;;;;;;5008754;28;20030;-71
2023/05/05 03:12:54;;;;;;;21.30;16.52;;;13.60;99.90;;;;;;4986336;28;20037;-73
2023/05/05 03:15:25;;;;;;;22.42;15.70;;;13.60;99.90;;;;;;4976947;28;20046;-71
2023/05/05 03:17:52;;;;;;;21.92;16.92;;;13.60;99.90;;;;;;4980469;28;20046;-71
2023/05/05 03:20:20;;;;;;;19.83;15.05;;;13.60;99.90;;;;;;4991416;28;20077;-71
2023/05/05 03:22:46;;;;;;;21.90;15.95;;;13.50;99.90;;;;;;5005097;28;20034;-71
2023/05/05 03:25:11;;;;;;;21.77;15.52;;;13.50;99.90;;;;;;4998812;28;20019;-71
2023/05/05 03:27:37;;;;;;;26.00;16.20;;;13.60;99.90;;;;;;4992319;28;20022;-71
2023/05/05 03:30:03;;;;;;;23.92;15.82;;;13.50;99.90;;;;;;4998267;28;20026;-71
2023/05/05 03:32:29;;;;;;;20.80;14.85;;;13.50;99.90;;;;;;4992898;28;20023;-71
2023/05/05 03:34:55;;;;;;;19.17;14.15;;;13.50;99.90;;;;;;5010711;28;20543;-71
2023/05/05 03:37:20;;;;;;;25.48;16.10;;;13.40;99.90;;;;;;5002577;28;20054;-71
2023/05/05 03:39:46;;;;;;;20.45;15.10;;;13.40;99.90;;;;;;4996228;28;20050;-71
2023/05/05 03:42:12;;;;;;;17.98;14.02;;;13.40;99.90;;;;;;5004431;28;20100;-71
2023/05/05 03:44:37;;;;;;;18.60;14.27;;;13.30;99.90;;;;;;5005637;28;20038;-71
2023/05/05 03:47:06;;;;;;;22.08;13.95;;;13.30;99.90;;;;;;5005615;28;20490;-71
2023/05/05 03:49:31;;;;;;;17.73;12.55;;;13.30;99.90;;;;;;4994985;28;20475;-71
2023/05/05 03:51:57;;;;;;;19.88;12.65;;;13.30;99.90;;;;;;5000051;28;20044;-71
2023/05/05 03:54:22;;;;;;;17.67;13.05;;;13.20;99.90;;;;;;4997624;28;20030;-71
2023/05/05 03:56:48;;;;;;;17.75;13.25;;;13.20;99.90;;;;;;4994472;28;20398;-71
2023/05/05 03:59:13;;;;;;;16.45;12.40;;;13.20;99.90;;;;;;5007015;28;20049;-71
2023/05/05 04:01:39;;;;;;;17.63;12.35;;;13.20;99.90;;;;;;5004068;28;20393;-71
2023/05/05 04:04:04;;;;;;;15.95;11.73;;;13.10;99.90;;;;;;5011542;28;20030;-72
2023/05/05 04:06:30;;;;;;;18.23;11.88;;;13.10;99.90;;;;;;5006180;28;20474;-72
2023/05/05 04:08:56;;;;;;;17.00;11.35;;;13.10;99.90;;;;;;4988374;28;20023;-71
2023/05/05 04:11:22;;;;;;;14.35;10.25;;;13.10;99.90;;;;;;4997468;28;20038;-71
2023/05/05 04:13:48;;;;;;;13.95;10.35;;;13.10;99.90;;;;;;5001388;28;20027;-71
2023/05/05 04:16:14;;;;;;;15.30;10.60;;;13.10;99.90;;;;;;4996573;28;20108;-71
2023/05/05 04:18:40;;;;;;;11.68;9.45;;;13.00;99.90;;;;;;4993281;28;20076;-71
2023/05/05 04:21:06;;;;;;;10.70;8.30;;;13.00;99.90;;;;;;4988259;28;20053;-71
2023/05/05 04:23:31;;;;;;;13.35;7.57;;;13.00;99.90;;;;;;4987808;28;20034;-70
2023/05/05 04:25:57;;;;;;;13.15;8.30;;;13.00;99.90;;;;;;4985735;28;20390;-71
2023/05/05 04:28:22;;;;;;;11.98;8.35;;;13.00;99.90;;;;;;4996408;28;20506;-71
2023/05/05 04:30:48;;;;;;;12.00;8.50;;;12.90;99.90;;;;;;4990723;28;20474;-71
2023/05/05 04:33:13;;;;;;;10.98;8.02;;;12.90;99.90;;;;;;5005517;28;20516;-71
2023/05/05 04:35:39;;;;;;;13.75;7.97;;;12.90;99.90;;;;;;5005913;28;20470;-71
2023/05/05 04:38:04;;;;;;;10.00;7.30;;;12.90;99.90;;;;;;4995572;28;20038;-72
2023/05/05 04:40:30;;;;;;;9.65;7.40;;;12.90;99.90;;;;;;5000140;28;20498;-71
2023/05/05 04:42:56;;;;;;;10.73;7.50;;;12.90;99.90;;;;;;4983668;28;20027;-71
2023/05/05 04:45:21;;;;;;;10.93;6.57;;;12.90;99.90;;;;;;4983752;28;20394;-71
2023/05/05 04:47:47;;;;;;;7.70;6.43;;;12.90;99.90;;;;;;4994197;28;20497;-71
2023/05/05 04:50:12;;;;;;;9.10;6.20;;;12.90;99.90;;;;;;4993544;28;20030;-71
2023/05/05 04:52:38;;;;;;;8.40;5.47;;;12.90;99.90;;;;;;4988436;28;20022;-71
2023/05/05 04:55:04;;;;;;;10.48;4.97;;;12.90;99.90;;;;;;4995499;28;20109;-71
2023/05/05 04:57:30;;;;;;;10.00;5.43;;;12.90;99.90;;;;;;5005315;28;20117;-71
2023/05/05 04:59:56;;;;;;;7.13;4.78;;;13.00;99.90;;;;;;5000713;28;20561;-71
2023/05/05 05:02:21;;;;;;;8.60;4.82;;;12.90;99.90;;;;;;5006180;28;20022;-71
2023/05/05 05:04:47;;;;;;;9.63;4.30;;;13.00;99.90;;;;;;4997992;28;20509;-71
2023/05/05 05:07:13;;;;;;;7.18;3.85;;;13.00;99.90;;;;;;4992394;28;20694;-71
2023/05/05 05:09:39;;;;;;;6.13;3.85;;;13.00;99.90;;;;;;4982366;28;20097;-71
2023/05/05 05:12:06;;;;;;;5.72;4.30;;;13.00;99.90;;;;;;4984148;28;20659;-72
2023/05/05 05:14:36;;;;;;;8.07;4.07;;;13.00;99.90;;;;;;4980442;28;20387;-71
2023/05/05 05:17:01;;;;;;;9.80;3.85;;;13.00;99.90;;;;;;4996905;28;20478;-72
2023/05/05 05:19:27;;;;;;;7.55;3.55;;;13.00;99.90;;;;;;4991293;28;20052;-73
2023/05/05 05:21:53;;;;;;;5.10;3.50;;;13.10;99.90;;;;;;5007837;28;20060;-73
2023/05/05 05:24:19;;;;;;;6.55;3.78;;;13.10;99.90;;;;;;5004042;28;20054;-73
2023/05/05 05:26:44;;;;;;;7.85;3.63;;;13.10;99.90;;;;;;4988085;28;20042;-71
2023/05/05 05:29:10;;;;;;;8.65;4.25;;;13.20;99.90;;;;;;4988350;28;20085;-71
2023/05/05 05:31:35;;;;;;;6.50;3.40;;;13.30;99.90;;;;;;4989396;28;20026;-71
2023/05/05 05:34:01;;;;;;;6.10;3.63;;;13.30;99.90;;;;;;5003647;28;20022;-71
2023/05/05 05:36:27;;;;;;;7.13;3.55;;;13.40;99.90;;;;;;5000951;28;20445;-71
2023/05/05 05:38:52;;;;;;;7.53;3.63;;;13.60;99.90;;;;;;4998594;28;20050;-71
2023/05/05 05:41:18;;;;;;;7.38;3.20;;;13.80;99.90;;;;;;5001855;28;20100;-71
2023/05/05 05:43:43;;;;;;;6.07;3.30;;;13.90;99.90;;;;;;4986099;28;20037;-72
2023/05/05 05:46:09;;;;;;;19.75;5.47;;;14.00;99.90;;;;;;4995142;28;20438;-72
2023/05/05 05:48:34;;;;;;;5.32;3.28;;;14.20;99.90;;;;;;4997175;28;20026;-71
2023/05/05 05:51:01;;;;;;;7.38;4.25;;;14.30;99.90;;;;;;4979192;28;20041;-71
2023/05/05 05:53:26;;;;;;;6.53;3.65;;;14.40;99.90;;;;;;4989695;28;20061;-72
2023/05/05 05:55:52;;;;;;;6.53;4.00;;;14.60;99.90;;;;;;4990215;28;20517;-72
2023/05/05 05:58:18;;;;;;;6.60;4.38;;;14.70;99.90;;;;;;4986483;28;20364;-72
2023/05/05 06:00:43;;;;;;;6.45;4.30;;;14.80;99.90;;;;;;4998612;28;20489;-71
2023/05/05 06:03:09;;;;;;;8.52;4.80;;;15.00;99.90;;;;;;5011003;28;20026;-72
2023/05/05 06:05:34;;;;;;;8.68;4.60;;;15.10;99.90;;;;;;5002626;28;20131;-72
2023/05/05 06:08:00;;;;;;;19.02;4.80;;;15.30;99.90;;;;;;5000314;28;20054;-72
2023/05/05 06:10:26;;;;;;;8.00;4.88;;;15.40;99.90;;;;;;4982016;28;20054;-72
2023/05/05 06:12:51;;;;;;;8.45;4.80;;;15.40;99.90;;;;;;4988271;28;20034;-72
2023/05/05 06:15:17;;;;;;;10.65;4.88;;;15.50;99.90;;;;;;4999629;28;20030;-73
2023/05/05 06:17:43;;;;;;;7.70;5.25;;;15.60;99.90;;;;;;4997773;28;20048;-72
2023/05/05 06:20:09;;;;;;;7.68;5.78;;;15.70;99.90;;;;;;4989365;28;20030;-73
2023/05/05 06:22:34;;;;;;;9.93;6.18;;;15.80;99.90;;;;;;4996123;28;20093;-73
2023/05/05 06:25:00;;;;;;;9.15;5.85;;;15.90;99.90;;;;;;5002768;28;20042;-73
2023/05/05 06:27:25;;;;;;;11.68;6.53;;;16.00;99.90;;;;;;4999305;28;20048;-73
2023/05/05 06:29:51;;;;;;;14.95;8.00;;;16.00;99.90;;;;;;4985482;28;20076;-72
2023/05/05 06:32:16;;;;;;;11.88;7.43;;;16.10;99.90;;;;;;4986790;28;20026;-73
2023/05/05 06:34:43;;;;;;;12.77;8.80;;;16.20;99.90;;;;;;4994726;28;20066;-72
2023/05/05 06:37:09;;;;;;;13.77;9.32;;;16.30;99.90;;;;;;4979760;28;20117;-73
2023/05/05 06:39:35;;;;;;;14.55;9.85;;;16.30;99.90;;;;;;4982192;28;20121;-72
2023/05/05 06:42:00;;;;;;;13.95;10.38;;;16.40;99.90;;;;;;4982837;28;20033;-73
2023/05/05 06:44:27;;;;;;;14.90;9.48;;;16.50;99.90;;;;;;4994537;28;20504;-72
2023/05/05 06:46:53;;;;;;;16.25;10.95;;;16.60;99.90;;;;;;5006332;28;20075;-73
2023/05/05 06:49:18;;;;;;;15.00;10.13;;;16.80;99.90;;;;;;4994110;28;20065;-73
2023/05/05 06:51:44;;;;;;;16.90;10.30;;;16.80;99.90;;;;;;4993400;28;20493;-73
2023/05/05 06:54:09;;;;;;;13.40;10.45;;;16.90;99.90;;;;;;4991717;28;20034;-73
2023/05/05 06:56:35;;;;;;;16.90;12.15;;;17.00;99.90;;;;;;4994890;28;20033;-72
2023/05/05 06:59:00;;;;;;;16.27;11.57;;;17.10;99.90;;;;;;4994709;28;20076;-73
2023/05/05 07:01:26;;;;;;;17.50;11.23;;;17.10;99.90;;;;;;4993306;28;20026;-73
2023/05/05 07:03:51;;;;;;;17.67;11.68;;;17.10;99.90;;;;;;5006139;28;20065;-72
2023/05/05 07:06:17;;;;;;;16.50;11.73;;;17.00;99.90;;;;;;5009628;28;20030;-72
2023/05/05 07:08:42;;;;;;;17.15;12.52;;;17.10;99.90;;;;;;5003710;28;20488;-73
2023/05/05 07:11:08;;;;;;;18.52;12.40;;;17.00;99.90;;;;;;5009486;28;20118;-73
2023/05/05 07:13:33;;;;;;;21.02;13.45;;;17.10;99.90;;;;;;4993241;28;20030;-73
2023/05/05 07:15:59;;;;;;;17.10;12.10;;;17.20;99.90;;;;;;4995689;28;20037;-72
2023/05/05 07:18:24;;;;;;;17.63;12.98;;;17.20;99.90;;;;;;4982696;28;20030;-73
2023/05/05 07:20:50;;;;;;;20.92;11.43;;;17.20;99.90;;;;;;4994647;28;20025;-73
2023/05/05 07:23:15;;;;;;;18.60;11.25;;;17.20;99.90;;;;;;4990116;28;20027;-73
2023/05/05 07:25:41;;;;;;;16.15;11.00;;;17.30;99.90;;;;;;4994726;28;20497;-73
2023/05/05 07:28:07;;;;;;;13.93;10.50;;;17.40;99.90;;;;;;4985523;28;20030;-72
2023/05/05 07:30:32;;;;;;;16.85;11.65;;;17.40;99.90;;;;;;4994905;28;20023;-73
2023/05/05 07:32:58;;;;;;;13.85;10.50;;;17.50;99.90;;;;;;4991091;28;20073;-73
2023/05/05 07:35:23;;;;;;;16.15;11.00;;;17.60;99.90;;;;;;4994363;28;20029;-73
2023/05/05 07:37:49;;;;;;;15.45;10.10;;;17.60;99.90;;;;;;4982189;28;20386;-73
2023/05/05 07:40:15;;;;;;;16.92;10.57;;;17.70;99.90;;;;;;4994083;28;20418;-72
2023/05/05 07:42:40;;;;;;;13.38;10.50;;;17.80;99.90;;;;;;4991668;28;20022;-73
2023/05/05 07:45:07;;;;;;;11.48;9.05;;;17.90;99.90;;;;;;4999211;28;20525;-73
2023/05/05 07:47:32;;;;;;;10.32;7.90;;;18.00;99.90;;;;;;5009047;28;20097;-72
2023/05/05 07:49:58;;;;;;;12.70;8.25;;;18.10;99.90;;;;;;4997881;28;20062;-71
2023/05/05 07:52:24;;;;;;;11.25;7.63;;;18.20;99.90;;;;;;4996368;28;20088;-72
2023/05/05 07:54:49;;;;;;;11.35;7.43;;;18.40;99.90;;;;;;4994302;28;20042;-72
2023/05/05 07:57:15;;;;;;;9.88;7.25;;;18.50;99.90;;;;;;4992840;28;20031;-71
2023/05/05 07:59:42;;;;;;;10.32;7.28;;;18.50;99.90;;;;;;4994664;28;20117;-72
2023/05/05 08:02:12;;;;;;;12.10;7.07;;;18.60;99.90;;;;;;4990864;28;20080;-72
2023/05/05 08:04:42;;;;;;;11.43;7.13;;;18.70;99.90;;;;;;4993335;28;20478;-72
2023/05/05 08:07:08;;;;;;;10.80;7.53;;;18.70;99.90;;;;;;4993737;28;20105;-72
2023/05/05 08:09:35;;;;;;;12.38;6.93;;;18.80;99.90;;;;;;4993170;28;20030;-72
2023/05/05 08:12:01;;;;;;;10.00;6.40;;;18.90;99.90;;;;;;4990267;28;20022;-72
2023/05/05 08:14:27;;;;;;;10.13;7.13;;;18.90;99.90;;;;;;5004051;28;20037;-71
2023/05/05 08:16:52;;;;;;;8.23;5.50;;;19.10;99.90;;;;;;4988583;28;20031;-72
2023/05/05 08:19:18;;;;;;;7.75;5.18;;;19.20;99.90;;;;;;4998812;28;20037;-72
2023/05/05 08:21:44;;;;;;;8.52;5.25;;;19.20;99.90;;;;;;5006796;28;20026;-72
2023/05/05 08:24:09;;;;;;;9.30;5.72;;;19.20;99.90;;;;;;4994484;28;20026;-72
2023/05/05 08:26:35;;;;;;;10.68;6.53;;;19.20;99.90;;;;;;4991295;28;20057;-72
2023/05/05 08:29:01;;;;;;;8.45;6.55;;;19.40;99.90;;;;;;4984867;28;20022;-71
2023/05/05 08:31:32;;;;;;;9.90;6.15;;;19.60;99.90;;;;;;4999720;28;20560;-72
2023/05/05 08:33:58;;;;;;;7.67;4.40;;;19.90;99.90;;;;;;4985767;28;20116;-72
2023/05/05 08:36:24;;;;;;;8.35;5.75;;;19.90;99.90;;;;;;4989207;28;20058;-71
2023/05/05 08:38:49;;;;;;;9.82;5.93;;;20.00;99.90;;;;;;4993488;28;20034;-72
2023/05/05 08:41:17;;;;;;;7.65;5.00;;;20.00;99.90;;;;;;4994141;28;20023;-72
2023/05/05 08:43:45;;;;;;;7.05;4.80;;;20.10;99.90;;;;;;4987531;28;20517;-72
2023/05/05 08:46:13;;;;;;;8.07;5.28;;;20.10;99.90;;;;;;4996409;28;20033;-72
2023/05/05 08:48:40;;;;;;;6.95;4.68;;;20.30;99.90;;;;;;4994846;28;20045;-72
2023/05/05 08:51:08;;;;;;;6.43;4.13;;;20.60;99.90;;;;;;4997703;28;20096;-72
2023/05/05 08:53:50;;;;;;;8.75;5.25;;;20.70;99.90;;;;;;5002261;28;20167;-73
2023/05/05 08:56:16;;;;;;;7.82;4.90;;;20.80;99.90;;;;;;4999253;28;20489;-72
2023/05/05 08:58:43;;;;;;;6.95;4.90;;;20.80;99.90;;;;;;4999282;28;20046;-72
2023/05/05 09:01:10;;;;;;;7.07;4.85;;;20.80;99.90;;;;;;4997231;28;20727;-72
2023/05/05 09:03:36;;;;;;;5.60;3.53;;;20.90;99.90;;;;;;4983002;28;20363;-74
2023/05/05 09:06:02;;;;;;;6.75;4.47;;;21.00;99.90;;;;;;5001325;28;20025;-72
2023/05/05 09:08:28;;;;;;;8.07;3.47;;;21.10;99.90;;;;;;5000431;28;20037;-73
2023/05/05 09:10:54;;;;;;;4.30;2.75;;;21.20;99.90;;;;;;4999111;28;20482;-72
2023/05/05 09:13:20;;;;;;;7.60;2.80;;;21.40;99.90;;;;;;4994695;28;20026;-72
2023/05/05 09:15:45;;;;;;;5.88;3.30;;;21.50;99.90;;;;;;4993755;28;20528;-72
2023/05/05 09:18:11;;;;;;;4.95;2.42;;;21.50;99.90;;;;;;5004435;28;20044;-72
2023/05/05 09:20:39;;;;;;;7.05;1.92;;;21.60;99.90;;;;;;5005768;28;20057;-72
2023/05/05 09:23:15;;;;;;;2.95;1.77;;;21.60;99.90;;;;;;4990204;28;20034;-72
2023/05/05 09:25:46;;;;;;;4.82;2.28;;;21.60;99.90;;;;;;4983896;28;20092;-72
2023/05/05 09:28:16;;;;;;;3.10;1.95;;;21.50;99.60;;;;;;5000093;28;20090;-71
2023/05/05 09:30:44;;;;;;;4.53;2.47;;;21.40;99.70;;;;;;4992573;28;20080;-72
2023/05/05 09:33:11;;;;;;;6.05;2.85;;;21.20;99.80;;;;;;4989366;28;20133;-72
2023/05/05 09:35:49;;;;;;;4.32;2.85;;;21.20;99.80;;;;;;4998437;28;20105;-73
2023/05/05 09:38:15;;;;;;;6.05;2.63;;;21.30;99.60;;;;;;4989711;28;20038;-72
2023/05/05 09:40:46;;;;;;;3.60;2.42;;;21.40;99.30;;;;;;5000460;28;20053;-72
2023/05/05 09:43:11;;;;;;;6.05;2.72;;;21.40;98.80;;;;;;4992225;28;20034;-72
2023/05/05 09:45:37;;;;;;;5.55;2.72;;;21.40;98.60;;;;;;5002793;28;20444;-72
2023/05/05 09:48:05;;;;;;;7.72;3.00;;;21.40;98.50;;;;;;4995533;28;20030;-72
2023/05/05 09:50:44;;;;;;;5.18;2.45;;;21.40;98.40;;;;;;4984078;28;20110;-72
2023/05/05 09:53:10;;;;;;;3.90;1.60;;;21.40;98.30;;;;;;4989040;28;20026;-72
2023/05/05 09:55:36;;;;;;;9.32;2.50;;;21.50;98.50;;;;;;4994142;28;20484;-73
2023/05/05 09:58:19;;;;;;;4.88;2.17;;;21.70;98.70;;;;;;4985260;28;20114;-72
2023/05/05 10:00:45;;;;;;;5.30;2.30;;;21.80;98.30;;;;;;4984540;28;20581;-72
2023/05/05 10:03:11;;;;;;;5.18;2.25;;;21.70;98.10;;;;;;4985967;28;20026;-72
2023/05/05 10:05:58;;;;;;;10.32;3.10;;;21.60;98.20;;;;;;4993072;28;20501;-72
2023/05/05 10:08:29;;;;;;;6.68;2.97;;;21.50;98.00;;;;;;4988548;28;20042;-74
2023/05/05 10:10:59;;;;;;;7.07;2.55;;;21.50;98.30;;;;;;4979504;28;20134;-73
2023/05/05 10:13:25;;;;;;;5.18;1.85;;;21.60;97.80;;;;;;4988420;28;20049;-72
2023/05/05 10:15:53;;;;;;;4.45;1.80;;;21.60;97.50;;;;;;4993581;28;20042;-72
2023/05/05 10:18:21;;;;;;;3.95;1.92;;;21.60;97.50;;;;;;4977537;28;20031;-72
2023/05/05 10:20:51;;;;;;;4.20;1.73;;;21.60;97.00;;;;;;4992737;28;20033;-72
2023/05/05 10:23:20;;;;;;;5.22;2.50;;;21.50;97.10;;;;;;4986786;28;20018;-72
2023/05/05 10:25:53;;;;;;;4.00;2.22;;;21.50;97.00;;;;;;4996496;28;20085;-72
2023/05/05 10:28:33;;;;;;;3.90;1.13;;;21.50;97.10;;;;;;5012988;28;20026;-72
2023/05/05 10:31:01;;;;;;;3.00;1.15;;;21.50;96.90;;;;;;4989263;28;20037;-72
2023/05/05 10:33:43;;;;;;;4.35;2.05;;;21.60;96.70;;;;;;4998465;28;20166;-72
2023/05/05 10:36:09;;;;;;;3.80;1.83;;;21.60;97.10;;;;;;4996585;28;20124;-72
2023/05/05 10:38:36;;;;;;;6.10;2.15;;;21.70;97.20;;;;;;4986662;28;20169;-72
2023/05/05 10:41:03;;;;;;;7.53;2.30;;;21.80;98.70;;;;;;4982219;28;20019;-72
2023/05/05 10:43:30;;;;;;;5.90;2.00;;;21.80;98.70;;;;;;5006068;28;20033;-72
2023/05/05 10:45:56;;;;;;;4.75;2.40;;;21.60;99.40;;;;;;4985069;28;20026;-71
2023/05/05 10:48:56;;;;;;;3.90;2.10;;;21.50;99.90;;;;;;4984195;28;20073;-71
2023/05/05 10:51:31;;;;;;;3.63;2.13;;;21.60;99.90;;;;;;4985802;28;20498;-72
2023/05/05 10:54:07;;;;;;;5.30;1.70;;;21.70;99.90;;;;;;4984486;28;20117;-72
2023/05/05 10:56:34;;;;;;;6.10;1.80;;;21.70;99.90;;;;;;4988815;28;20023;-72
2023/05/05 10:59:00;;;;;;;3.85;1.98;;;21.70;99.90;;;;;;4998595;28;20510;-73
2023/05/05 11:01:33;;;;;;;5.80;1.90;;;21.70;99.60;;;;;;4987896;28;20101;-72
2023/05/05 11:04:20;;;;;;;3.85;1.20;;;21.60;99.50;;;;;;4992529;28;20505;-72
2023/05/05 11:07:08;;;;;;;2.70;1.00;;;21.60;99.10;;;;;;4982504;28;20056;-72
2023/05/05 11:09:40;;;;;;;3.17;1.10;;;21.50;99.00;;;;;;4992935;28;20034;-72
2023/05/05 11:12:07;;;;;;;4.22;1.10;;;21.20;99.00;;;;;;5013789;28;20029;-72
2023/05/05 11:14:33;;;;;;;4.10;1.02;;;21.10;99.10;;;;;;5010505;28;20053;-72
2023/05/05 11:16:59;;;;;;;5.07;0.40;;;20.80;98.80;;;;;;4999346;28;20065;-72
2023/05/05 11:19:47;;;;;;;2.42;0.20;;;20.20;98.00;;;;;;4983168;28;20045;-71
2023/05/05 11:22:12;;;;;;;2.22;0.10;;;18.70;98.40;;;;;;4999958;28;20022;-71
2023/05/05 11:24:41;;;;;;;2.90;0.20;;;17.00;99.90;;;;;;5006186;28;20038;-73
2023/05/05 11:27:06;;;;;;;2.35;0.30;;;15.70;99.90;;;;;;4995711;28;20430;-72
2023/05/05 11:30:03;;;;;;;2.65;0.20;;;14.60;99.90;;;;;;4990412;28;20058;-72
2023/05/05 11:32:29;;;;;;;0.70;0.22;;;13.80;99.90;;;;;;4983869;28;20058;-72
2023/05/05 11:34:55;;;;;;;1.63;0.40;;;13.30;99.90;;;;;;5000164;28;20120;-72
2023/05/05 11:37:23;;;;;;;1.40;0.30;;;13.20;99.90;;;;;;5009132;28;20119;-72
2023/05/05 11:40:14;;;;;;;1.17;0.20;;;13.10;99.90;;;;;;4985699;28;20156;-72
2023/05/05 11:42:39;;;;;;;2.25;0.30;;;13.00;99.90;;;;;;4981834;28;20042;-71
2023/05/05 11:45:20;;;;;;;1.00;0.30;;;13.00;99.90;;;;;;5003410;28;20482;-72
2023/05/05 11:47:45;;;;;;;1.67;0.40;;;13.00;99.90;;;;;;4987311;28;20035;-71
2023/05/05 11:50:16;;;;;;;2.90;0.60;;;13.00;99.90;;;;;;4985345;28;20422;-72
2023/05/05 11:52:41;;;;;;;3.50;0.40;;;13.00;99.90;;;;;;4984188;28;20019;-72
2023/05/05 11:55:07;;;;;;;3.60;0.60;;;13.00;99.90;;;;;;4984241;28;20034;-72
2023/05/05 11:57:33;;;;;;;2.80;0.70;;;13.10;99.90;;;;;;4985092;28;20034;-72
2023/05/05 12:00:01;;;;;;;4.03;0.73;;;13.10;99.90;;;;;;4985531;28;20034;-71
2023/05/05 12:02:28;;;;;;;2.55;0.73;;;13.20;99.90;;;;;;4984037;28;20057;-72
2023/05/05 12:04:55;;;;;;;5.22;0.80;;;13.30;99.90;;;;;;4991965;28;20038;-71
2023/05/05 12:07:26;;;;;;;4.15;1.00;;;13.40;99.90;;;;;;4990850;28;20049;-71
2023/05/05 12:09:52;;;;;;;2.08;0.63;;;13.50;99.90;;;;;;4989828;28;20014;-72
2023/05/05 12:12:18;;;;;;;3.60;0.60;;;13.50;99.90;;;;;;4993420;28;20105;-72
2023/05/05 12:14:53;;;;;;;2.95;0.60;;;13.60;99.90;;;;;;4989148;28;20069;-72
2023/05/05 12:17:20;;;;;;;4.38;0.50;;;13.60;99.90;;;;;;4989539;28;20027;-73
2023/05/05 12:19:53;;;;;;;3.30;0.70;;;13.60;99.90;;;;;;4998490;28;20042;-71
2023/05/05 12:22:21;;;;;;;7.07;0.90;;;13.60;99.90;;;;;;4982415;28;20022;-70
2023/05/05 12:24:57;;;;;;;4.10;0.90;;;13.70;99.90;;;;;;4997774;28;20388;-71
2023/05/05 12:27:24;;;;;;;9.23;0.80;;;13.80;99.90;;;;;;4991433;28;20022;-71
2023/05/05 12:29:50;;;;;;;3.05;0.70;;;13.90;99.90;;;;;;4991443;28;20026;-70
2023/05/05 12:32:26;;;;;;;2.35;0.60;;;14.00;99.90;;;;;;4995704;28;20033;-71
2023/05/05 12:34:56;;;;;;;4.43;0.88;;;14.00;99.90;;;;;;4985085;28;20529;-70
2023/05/05 12:37:23;;;;;;;4.10;0.95;;;14.10;99.90;;;;;;4997889;28;20030;-71
2023/05/05 12:39:49;;;;;;;5.80;1.25;;;14.20;99.90;;;;;;4981021;28;20078;-71
2023/05/05 12:42:15;;;;;;;3.95;0.95;;;14.40;99.90;;;;;;4986628;28;20050;-71
2023/05/05 12:44:43;;;;;;;7.40;1.17;;;14.40;99.90;;;;;;4980413;28;20503;-71